Vollmers Atmospheric Data: 03/19/2019 Summary  Detailed Graphs  Station List

  Temperature     Wind Precipitation Visibility
Timestamp Air Wet
Bulb
Dew-
point
24-hr
Max
24-hr
Min
Relative
Humidity
Atmospheric
Pressure
Avg
Speed
Avg
Dir
Spot
Speed
Spot
Dir
Max
Speed
Max
Dir
  Rate Situation Start End 1 hr 3 hr 6 hr 12 hr 24 hr   Situation
Date Time °F °F °F °F °F % in Hg mph ° mph ° mph ° Y/N in/hr text Date Time Date Time in in in in in mi text
03/19/2019 12:13 AM 51.26 43.16 33.26 74.30 42.26 49.0 Not Reported 8.05 W 8.28 W 9.40 W No 0.000 No Precipitation 03/10/2019 05:45 AM 03/10/2019 05:50 AM 0.000 0.000 0.000 0.000 0.000 Not Reported Not Reported
03/19/2019 12:28 AM 50.36 43.16 34.34 74.30 42.26 54.0 Not Reported 10.29 W 10.51 W 10.07 W No 0.000 No Precipitation 03/10/2019 05:45 AM 03/10/2019 05:50 AM 0.000 0.000 0.000 0.000 0.000 Not Reported Not Reported
03/19/2019 12:43 AM 49.82 42.44 33.26 74.30 42.26 52.0 Not Reported 7.16 W 9.62 W 13.65 NW No 0.000 No Precipitation 03/10/2019 05:45 AM 03/10/2019 05:50 AM 0.000 0.000 0.000 0.000 0.000 Not Reported Not Reported
03/19/2019 12:58 AM 48.38 42.26 35.06 74.30 42.26 59.0 Not Reported 7.16 W 6.93 W 12.30 W No 0.000 No Precipitation 03/10/2019 05:45 AM 03/10/2019 05:50 AM 0.000 0.000 0.000 0.000 0.000 Not Reported Not Reported
03/19/2019 01:13 AM 49.28 42.44 33.80 74.30 42.26 54.0 Not Reported 9.62 W 6.04 NW 11.41 W No 0.000 No Precipitation 03/10/2019 05:45 AM 03/10/2019 05:50 AM 0.000 0.000 0.000 0.000 0.000 Not Reported Not Reported
03/19/2019 01:28 AM 46.94 41.54 34.70 74.30 42.26 61.0 Not Reported 6.04 W 7.16 W 11.86 NW No 0.000 No Precipitation 03/10/2019 05:45 AM 03/10/2019 05:50 AM 0.000 0.000 0.000 0.000 0.000 Not Reported Not Reported
03/19/2019 01:43 AM 49.46 41.90 32.54 74.30 42.26 51.0 Not Reported 6.04 W 9.17 W 9.84 W No 0.000 No Precipitation 03/10/2019 05:45 AM 03/10/2019 05:50 AM 0.000 0.000 0.000 0.000 0.000 Not Reported Not Reported
03/19/2019 01:58 AM 49.28 41.72 32.18 74.30 42.26 51.0 Not Reported 6.04 NW 6.26 NW 10.29 W No 0.000 No Precipitation 03/10/2019 05:45 AM 03/10/2019 05:50 AM 0.000 0.000 0.000 0.000 0.000 Not Reported Not Reported
03/19/2019 02:13 AM 46.04 40.82 34.52 74.30 42.26 63.0 Not Reported 8.05 W 8.28 W 9.84 W No 0.000 No Precipitation 03/10/2019 05:45 AM 03/10/2019 05:50 AM 0.000 0.000 0.000 0.000 0.000 Not Reported Not Reported
03/19/2019 02:43 AM 48.92 41.54 32.36 74.30 42.26 52.0 Not Reported 6.71 NW 7.38 W 11.63 W No 0.000 No Precipitation 03/10/2019 05:45 AM 03/10/2019 05:50 AM 0.000 0.000 0.000 0.000 0.000 Not Reported Not Reported
03/19/2019 02:58 AM 46.40 40.82 33.80 74.30 42.26 61.0 Not Reported 7.16 W 7.38 SW 8.50 NW No 0.000 No Precipitation 03/10/2019 05:45 AM 03/10/2019 05:50 AM 0.000 0.000 0.000 0.000 0.000 Not Reported Not Reported
03/19/2019 03:13 AM 45.86 40.64 33.98 74.30 42.26 63.0 Not Reported 6.49 W 5.37 W 8.50 NW No 0.000 No Precipitation 03/10/2019 05:45 AM 03/10/2019 05:50 AM 0.000 0.000 0.000 0.000 0.000 Not Reported Not Reported
03/19/2019 03:28 AM 46.04 40.82 34.34 74.30 42.26 63.0 Not Reported 6.04 W 7.16 W 9.17 W No 0.000 No Precipitation 03/10/2019 05:45 AM 03/10/2019 05:50 AM 0.000 0.000 0.000 0.000 0.000 Not Reported Not Reported
03/19/2019 03:43 AM 46.40 40.82 33.80 74.30 42.26 61.0 Not Reported 7.38 W 7.61 W 9.84 W No 0.000 No Precipitation 03/10/2019 05:45 AM 03/10/2019 05:50 AM 0.000 0.000 0.000 0.000 0.000 Not Reported Not Reported
03/19/2019 03:58 AM 46.40 40.82 33.98 74.30 42.26 61.0 Not Reported 6.71 W 6.49 W 9.40 W No 0.000 No Precipitation 03/10/2019 05:45 AM 03/10/2019 05:50 AM 0.000 0.000 0.000 0.000 0.000 Not Reported Not Reported
03/19/2019 04:13 AM 45.68 40.64 34.52 74.30 42.26 64.0 Not Reported 6.71 W 7.61 NW 8.50 W No 0.000 No Precipitation 03/10/2019 05:45 AM 03/10/2019 05:50 AM 0.000 0.000 0.000 0.000 0.000 Not Reported Not Reported
03/19/2019 04:28 AM 45.32 40.46 34.52 74.30 42.26 65.0 Not Reported 7.38 W 8.72 W 8.50 NW No 0.000 No Precipitation 03/10/2019 05:45 AM 03/10/2019 05:50 AM 0.000 0.000 0.000 0.000 0.000 Not Reported Not Reported
03/19/2019 04:43 AM 44.42 40.28 35.06 74.30 42.26 69.0 Not Reported 8.05 W 5.37 W 9.17 W No 0.000 No Precipitation 03/10/2019 05:45 AM 03/10/2019 05:50 AM 0.000 0.000 0.000 0.000 0.000 Not Reported Not Reported
03/19/2019 04:58 AM 45.50 40.64 34.70 74.30 42.26 65.0 Not Reported 8.50 W 10.07 W 8.72 W No 0.000 No Precipitation 03/10/2019 05:45 AM 03/10/2019 05:50 AM 0.000 0.000 0.000 0.000 0.000 Not Reported Not Reported
03/19/2019 05:13 AM 44.78 40.64 35.24 74.30 42.26 69.0 Not Reported 7.83 W 7.16 NW 9.40 NW No 0.000 No Precipitation 03/10/2019 05:45 AM 03/10/2019 05:50 AM 0.000 0.000 0.000 0.000 0.000 Not Reported Not Reported
03/19/2019 05:28 AM 45.86 40.82 34.70 74.30 42.26 64.0 Not Reported 6.71 W 7.16 W 10.51 NW No 0.000 No Precipitation 03/10/2019 05:45 AM 03/10/2019 05:50 AM 0.000 0.000 0.000 0.000 0.000 Not Reported Not Reported
03/19/2019 05:43 AM 47.48 41.54 34.16 74.30 42.26 59.0 Not Reported 7.38 NW 6.93 W 9.62 W No 0.000 No Precipitation 03/10/2019 05:45 AM 03/10/2019 05:50 AM 0.000 0.000 0.000 0.000 0.000 Not Reported Not Reported
03/19/2019 05:58 AM 46.94 40.82 32.90 74.30 42.26 58.0 Not Reported 7.61 W 8.50 W 9.84 NW No 0.000 No Precipitation 03/10/2019 05:45 AM 03/10/2019 05:50 AM 0.000 0.000 0.000 0.000 0.000 Not Reported Not Reported
03/19/2019 06:13 AM 44.60 40.46 35.42 74.30 42.26 69.0 Not Reported 6.71 SW 7.16 SW 8.50 NW No 0.000 No Precipitation 03/10/2019 05:45 AM 03/10/2019 05:50 AM 0.000 0.000 0.000 0.000 0.000 Not Reported Not Reported
03/19/2019 06:28 AM 45.68 40.64 34.52 74.30 42.80 64.0 Not Reported 6.26 W 6.26 W 8.05 W No 0.000 No Precipitation 03/10/2019 05:45 AM 03/10/2019 05:50 AM 0.000 0.000 0.000 0.000 0.000 Not Reported Not Reported
03/19/2019 06:43 AM 45.32 40.82 35.24 74.30 42.80 67.0 Not Reported 6.26 W 7.38 W 9.17 W No 0.000 No Precipitation 03/10/2019 05:45 AM 03/10/2019 05:50 AM 0.000 0.000 0.000 0.000 0.000 Not Reported Not Reported
03/19/2019 06:58 AM 46.76 41.00 33.80 74.30 42.80 60.0 Not Reported 6.71 W 6.71 W 10.07 W No 0.000 No Precipitation 03/10/2019 05:45 AM 03/10/2019 05:50 AM 0.000 0.000 0.000 0.000 0.000 Not Reported Not Reported
03/19/2019 07:13 AM 44.96 40.64 35.42 74.30 42.80 69.0 Not Reported 9.17 W 9.62 W 9.17 W No 0.000 No Precipitation 03/10/2019 05:45 AM 03/10/2019 05:50 AM 0.000 0.000 0.000 0.000 0.000 Not Reported Not Reported
03/19/2019 07:28 AM 48.02 41.54 33.44 74.30 42.80 56.0 Not Reported 8.50 W 7.38 W 10.74 W No 0.000 No Precipitation 03/10/2019 05:45 AM 03/10/2019 05:50 AM 0.000 0.000 0.000 0.000 0.000 Not Reported Not Reported
03/19/2019 07:43 AM 48.20 41.72 33.80 74.30 42.80 56.0 Not Reported 8.05 W 6.26 W 12.53 W No 0.000 No Precipitation 03/10/2019 05:45 AM 03/10/2019 05:50 AM 0.000 0.000 0.000 0.000 0.000 Not Reported Not Reported
03/19/2019 07:58 AM 46.94 41.54 35.06 74.30 42.80 62.0 Not Reported 6.93 W 7.61 W 11.18 W No 0.000 No Precipitation 03/10/2019 05:45 AM 03/10/2019 05:50 AM 0.000 0.000 0.000 0.000 0.000 Not Reported Not Reported
03/19/2019 08:13 AM 46.94 41.54 35.06 74.30 44.06 63.0 Not Reported 5.59 W 5.37 W 9.40 W No 0.000 No Precipitation 03/10/2019 05:45 AM 03/10/2019 05:50 AM 0.000 0.000 0.000 0.000 0.000 Not Reported Not Reported
03/19/2019 08:28 AM 46.40 41.36 35.42 74.30 44.06 65.0 Not Reported 6.26 W 5.14 W 7.61 W No 0.000 No Precipitation 03/10/2019 05:45 AM 03/10/2019 05:50 AM 0.000 0.000 0.000 0.000 0.000 Not Reported Not Reported
03/19/2019 08:43 AM 47.84 41.90 34.70 74.30 44.06 60.0 Not Reported 6.71 W 5.59 W 9.17 W No 0.000 No Precipitation 03/10/2019 05:45 AM 03/10/2019 05:50 AM 0.000 0.000 0.000 0.000 0.000 Not Reported Not Reported
03/19/2019 08:58 AM 47.48 41.90 35.24 74.30 44.06 62.0 Not Reported 7.61 W 6.71 W 9.17 W No 0.000 No Precipitation 03/10/2019 05:45 AM 03/10/2019 05:50 AM 0.000 0.000 0.000 0.000 0.000 Not Reported Not Reported
03/19/2019 09:13 AM 48.38 42.44 35.24 74.30 44.06 60.0 Not Reported 6.26 W 6.26 W 8.50 W No 0.000 No Precipitation 03/10/2019 05:45 AM 03/10/2019 05:50 AM 0.000 0.000 0.000 0.000 0.000 Not Reported Not Reported
03/19/2019 09:28 AM 48.56 42.08 34.16 74.30 44.06 57.0 Not Reported 7.83 W 8.72 W 9.40 W No 0.000 No Precipitation 03/10/2019 05:45 AM 03/10/2019 05:50 AM 0.000 0.000 0.000 0.000 0.000 Not Reported Not Reported
03/19/2019 09:43 AM 50.72 43.52 35.06 74.30 44.06 54.0 Not Reported 5.82 W 5.37 W 7.38 W No 0.000 No Precipitation 03/10/2019 05:45 AM 03/10/2019 05:50 AM 0.000 0.000 0.000 0.000 0.000 Not Reported Not Reported
03/19/2019 09:58 AM 51.26 44.06 36.86 74.30 44.06 57.0 Not Reported 4.25 W 5.59 W 8.05 W No 0.000 No Precipitation 03/10/2019 05:45 AM 03/10/2019 05:50 AM 0.000 0.000 0.000 0.000 0.000 Not Reported Not Reported
03/19/2019 10:13 AM 53.24 44.60 34.70 74.30 44.06 49.0 Not Reported 4.03 W 5.14 W 6.71 SW No 0.000 No Precipitation 03/10/2019 05:45 AM 03/10/2019 05:50 AM 0.000 0.000 0.000 0.000 0.000 Not Reported Not Reported
03/19/2019 10:28 AM 54.68 46.58 37.76 74.30 44.06 52.0 Not Reported 4.47 W 3.58 SW 5.59 SW No 0.000 No Precipitation 03/10/2019 05:45 AM 03/10/2019 05:50 AM 0.000 0.000 0.000 0.000 0.000 Not Reported Not Reported
03/19/2019 10:43 AM 55.58 45.14 33.08 74.30 44.06 42.0 Not Reported 3.80 NW 3.80 W 7.61 W No 0.000 No Precipitation 03/10/2019 05:45 AM 03/10/2019 05:50 AM 0.000 0.000 0.000 0.000 0.000 Not Reported Not Reported
03/19/2019 10:58 AM 57.92 46.58 32.90 74.30 44.06 38.0 Not Reported 3.13 NW 4.03 NW 4.47 NW No 0.000 No Precipitation 03/10/2019 05:45 AM 03/10/2019 05:50 AM 0.000 0.000 0.000 0.000 0.000 Not Reported Not Reported
03/19/2019 11:13 AM 59.90 47.12 32.72 74.30 44.06 35.0 Not Reported 3.80 NW 4.92 NW 4.70 NW No 0.000 No Precipitation 03/10/2019 05:45 AM 03/10/2019 05:50 AM 0.000 0.000 0.000 0.000 0.000 Not Reported Not Reported
03/19/2019 11:28 AM 62.06 48.20 32.72 74.30 44.06 33.0 Not Reported 5.14 NW 4.47 NW 6.49 NW No 0.000 No Precipitation 03/10/2019 05:45 AM 03/10/2019 05:50 AM 0.000 0.000 0.000 0.000 0.000 Not Reported Not Reported
03/19/2019 11:43 AM 63.86 48.56 31.46 74.30 44.06 29.0 Not Reported 4.70 W 6.71 NW 8.72 W No 0.000 No Precipitation 03/10/2019 05:45 AM 03/10/2019 05:50 AM 0.000 0.000 0.000 0.000 0.000 Not Reported Not Reported
03/19/2019 11:58 AM 66.74 49.82 31.46 74.30 44.06 26.0 Not Reported 3.80 W 3.13 W 8.50 NW No 0.000 No Precipitation 03/10/2019 05:45 AM 03/10/2019 05:50 AM 0.000 0.000 0.000 0.000 0.000 Not Reported Not Reported
03/19/2019 12:13 PM 67.46 50.00 30.38 74.30 44.06 24.0 Not Reported 4.92 NW 7.38 NW 7.83 W No 0.000 No Precipitation 03/10/2019 05:45 AM 03/10/2019 05:50 AM 0.000 0.000 0.000 0.000 0.000 Not Reported Not Reported
03/19/2019 12:28 PM 68.00 50.18 30.56 74.30 44.06 24.0 Not Reported 5.14 NW 4.92 N 7.38 NW No 0.000 No Precipitation 03/10/2019 05:45 AM 03/10/2019 05:50 AM 0.000 0.000 0.000 0.000 0.000 Not Reported Not Reported
03/19/2019 12:43 PM 69.44 50.54 29.48 74.30 44.06 22.0 Not Reported 3.13 NW 5.14 NW 6.71 NW No 0.000 No Precipitation 03/10/2019 05:45 AM 03/10/2019 05:50 AM 0.000 0.000 0.000 0.000 0.000 Not Reported Not Reported
03/19/2019 12:58 PM 68.90 50.54 30.38 74.30 44.06 23.0 Not Reported 5.59 NW 4.47 W 8.05 NW No 0.000 No Precipitation 03/10/2019 05:45 AM 03/10/2019 05:50 AM 0.000 0.000 0.000 0.000 0.000 Not Reported Not Reported
03/19/2019 01:13 PM 69.62 50.90 30.38 74.30 44.06 23.0 Not Reported 6.71 NW 5.37 NW 6.26 NW No 0.000 No Precipitation 03/10/2019 05:45 AM 03/10/2019 05:50 AM 0.000 0.000 0.000 0.000 0.000 Not Reported Not Reported
03/19/2019 01:28 PM 70.52 51.44 31.10 74.30 44.06 22.0 Not Reported 4.03 NW 3.80 NW 7.61 NW No 0.000 No Precipitation 03/10/2019 05:45 AM 03/10/2019 05:50 AM 0.000 0.000 0.000 0.000 0.000 Not Reported Not Reported
03/19/2019 01:43 PM 71.24 51.08 28.22 74.30 44.06 19.0 Not Reported 1.79 W 4.25 W 6.93 W No 0.000 No Precipitation 03/10/2019 05:45 AM 03/10/2019 05:50 AM 0.000 0.000 0.000 0.000 0.000 Not Reported Not Reported
03/19/2019 01:58 PM 73.04 51.80 27.86 74.30 44.06 18.0 Not Reported 1.57 W 0.89 NW 4.25 W No 0.000 No Precipitation 03/10/2019 05:45 AM 03/10/2019 05:50 AM 0.000 0.000 0.000 0.000 0.000 Not Reported Not Reported
03/19/2019 02:13 PM 72.68 52.16 30.02 74.30 44.06 20.0 Not Reported 1.12 W 0.89 S 2.46 SW No 0.000 No Precipitation 03/10/2019 05:45 AM 03/10/2019 05:50 AM 0.000 0.000 0.000 0.000 0.000 Not Reported Not Reported
03/19/2019 02:28 PM 72.68 51.98 29.48 74.30 44.06 19.0 Not Reported 2.91 SE 4.47 E 3.36 SE No 0.000 No Precipitation 03/10/2019 05:45 AM 03/10/2019 05:50 AM 0.000 0.000 0.000 0.000 0.000 Not Reported Not Reported
03/19/2019 02:43 PM 72.50 51.44 27.14 74.30 44.06 18.0 Not Reported 2.24 SE 1.79 E 8.05 E No 0.000 No Precipitation 03/10/2019 05:45 AM 03/10/2019 05:50 AM 0.000 0.000 0.000 0.000 0.000 Not Reported Not Reported
03/19/2019 02:58 PM 71.60 51.08 28.04 74.30 44.06 19.0 Not Reported 4.70 SE 4.25 SE 6.49 SE No 0.000 No Precipitation 03/10/2019 05:45 AM 03/10/2019 05:50 AM 0.000 0.000 0.000 0.000 0.000 Not Reported Not Reported
03/19/2019 03:13 PM 73.22 52.34 29.84 74.30 44.06 19.0 Not Reported 2.46 NE 1.79 S 4.70 SE No 0.000 No Precipitation 03/10/2019 05:45 AM 03/10/2019 05:50 AM 0.000 0.000 0.000 0.000 0.000 Not Reported Not Reported
03/19/2019 03:28 PM 74.48 52.88 29.66 74.84 44.06 18.0 Not Reported 6.26 E 7.38 E 6.93 E No 0.000 No Precipitation 03/10/2019 05:45 AM 03/10/2019 05:50 AM 0.000 0.000 0.000 0.000 0.000 Not Reported Not Reported
03/19/2019 03:43 PM 73.22 52.34 29.66 74.84 44.06 19.0 Not Reported 4.03 E 6.71 SE 7.38 E No 0.000 No Precipitation 03/10/2019 05:45 AM 03/10/2019 05:50 AM 0.000 0.000 0.000 0.000 0.000 Not Reported Not Reported
03/19/2019 03:58 PM 72.86 52.34 30.38 74.84 44.06 20.0 Not Reported 2.68 SE 3.13 SE 7.16 E No 0.000 No Precipitation 03/10/2019 05:45 AM 03/10/2019 05:50 AM 0.000 0.000 0.000 0.000 0.000 Not Reported Not Reported
03/19/2019 04:13 PM 72.14 52.16 30.74 74.84 44.06 21.0 Not Reported 4.03 SE 7.16 E 5.82 SE No 0.000 No Precipitation 03/10/2019 05:45 AM 03/10/2019 05:50 AM 0.000 0.000 0.000 0.000 0.000 Not Reported Not Reported
03/19/2019 04:28 PM 73.04 52.52 30.92 74.84 44.06 20.0 Not Reported 2.24 SW 1.34 SE 9.17 E No 0.000 No Precipitation 03/10/2019 05:45 AM 03/10/2019 05:50 AM 0.000 0.000 0.000 0.000 0.000 Not Reported Not Reported
03/19/2019 04:43 PM 72.14 52.34 31.64 74.84 44.06 22.0 Not Reported 2.91 SE 5.59 SE 6.26 E No 0.000 No Precipitation 03/10/2019 05:45 AM 03/10/2019 05:50 AM 0.000 0.000 0.000 0.000 0.000 Not Reported Not Reported
03/19/2019 04:58 PM 71.78 51.98 31.10 74.84 44.06 22.0 Not Reported 4.03 W 0.89 W 9.84 E No 0.000 No Precipitation 03/10/2019 05:45 AM 03/10/2019 05:50 AM 0.000 0.000 0.000 0.000 0.000 Not Reported Not Reported
03/19/2019 05:13 PM 71.06 51.62 30.56 74.84 44.06 22.0 Not Reported 3.58 SE 3.58 E 5.37 SE No 0.000 No Precipitation 03/10/2019 05:45 AM 03/10/2019 05:50 AM 0.000 0.000 0.000 0.000 0.000 Not Reported Not Reported
03/19/2019 05:28 PM 70.70 51.44 30.56 74.84 44.06 22.0 Not Reported 4.92 SE 6.04 NE 4.70 S No 0.000 No Precipitation 03/10/2019 05:45 AM 03/10/2019 05:50 AM 0.000 0.000 0.000 0.000 0.000 Not Reported Not Reported
03/19/2019 05:43 PM 70.70 51.62 31.28 74.84 44.06 23.0 Not Reported 5.82 SE 5.14 S 6.93 SE No 0.000 No Precipitation 03/10/2019 05:45 AM 03/10/2019 05:50 AM 0.000 0.000 0.000 0.000 0.000 Not Reported Not Reported
03/19/2019 05:58 PM 70.34 51.44 31.46 74.84 44.06 23.0 Not Reported 4.92 E 5.14 E 8.05 SE No 0.000 No Precipitation 03/10/2019 05:45 AM 03/10/2019 05:50 AM 0.000 0.000 0.000 0.000 0.000 Not Reported Not Reported
03/19/2019 06:13 PM 70.16 51.62 32.00 74.84 44.06 24.0 Not Reported 4.03 SE 4.47 SE 5.59 E No 0.000 No Precipitation 03/10/2019 05:45 AM 03/10/2019 05:50 AM 0.000 0.000 0.000 0.000 0.000 Not Reported Not Reported
03/19/2019 06:28 PM 69.98 51.80 32.72 74.84 44.06 25.0 Not Reported 4.25 E 4.47 E 8.28 E No 0.000 No Precipitation 03/10/2019 05:45 AM 03/10/2019 05:50 AM 0.000 0.000 0.000 0.000 0.000 Not Reported Not Reported
03/19/2019 06:43 PM 69.62 51.62 33.08 74.84 44.06 25.0 Not Reported 2.91 E 2.46 S 5.14 S No 0.000 No Precipitation 03/10/2019 05:45 AM 03/10/2019 05:50 AM 0.000 0.000 0.000 0.000 0.000 Not Reported Not Reported
03/19/2019 06:58 PM 69.26 51.80 33.80 74.84 44.06 26.0 Not Reported 3.58 E 3.13 E 4.25 E No 0.000 No Precipitation 03/10/2019 05:45 AM 03/10/2019 05:50 AM 0.000 0.000 0.000 0.000 0.000 Not Reported Not Reported
03/19/2019 07:13 PM 68.54 51.98 35.60 74.84 44.06 29.0 Not Reported 1.57 S 0.67 SE 7.38 SE No 0.000 No Precipitation 03/10/2019 05:45 AM 03/10/2019 05:50 AM 0.000 0.000 0.000 0.000 0.000 Not Reported Not Reported
03/19/2019 07:28 PM 66.38 51.62 37.22 74.84 44.06 33.0 Not Reported 1.57 S 1.34 S 2.24 SW No 0.000 No Precipitation 03/10/2019 05:45 AM 03/10/2019 05:50 AM 0.000 0.000 0.000 0.000 0.000 Not Reported Not Reported
03/19/2019 07:43 PM 65.48 51.08 36.86 74.84 44.06 34.0 Not Reported 1.57 NE 1.57 NE 2.01 SW No 0.000 No Precipitation 03/10/2019 05:45 AM 03/10/2019 05:50 AM 0.000 0.000 0.000 0.000 0.000 Not Reported Not Reported
03/19/2019 07:58 PM 64.40 50.90 37.58 74.84 44.06 36.0 Not Reported 0.22 S 0.22 SW 3.80 SW No 0.000 No Precipitation 03/10/2019 05:45 AM 03/10/2019 05:50 AM 0.000 0.000 0.000 0.000 0.000 Not Reported Not Reported
03/19/2019 08:13 PM 63.50 51.26 39.38 74.84 44.06 40.0 Not Reported 1.34 E 0.67 S 2.46 NW No 0.000 No Precipitation 03/10/2019 05:45 AM 03/10/2019 05:50 AM 0.000 0.000 0.000 0.000 0.000 Not Reported Not Reported
03/19/2019 08:28 PM 62.60 50.90 39.74 74.84 44.06 42.0 Not Reported 1.79 W 1.12 SW 1.57 SW No 0.000 No Precipitation 03/10/2019 05:45 AM 03/10/2019 05:50 AM 0.000 0.000 0.000 0.000 0.000 Not Reported Not Reported
03/19/2019 08:43 PM 61.88 51.08 40.82 74.84 44.06 45.0 Not Reported 0.45 S 2.01 E 3.58 W No 0.000 No Precipitation 03/10/2019 05:45 AM 03/10/2019 05:50 AM 0.000 0.000 0.000 0.000 0.000 Not Reported Not Reported
03/19/2019 08:58 PM 61.16 50.54 40.64 74.84 44.06 46.0 Not Reported 0.45 NE 0.67 SE 2.01 E No 0.000 No Precipitation 03/10/2019 05:45 AM 03/10/2019 05:50 AM 0.000 0.000 0.000 0.000 0.000 Not Reported Not Reported
03/19/2019 09:13 PM 60.98 51.26 42.26 74.84 44.06 49.0 Not Reported 1.79 NE 1.79 E 3.80 N No 0.000 No Precipitation 03/10/2019 05:45 AM 03/10/2019 05:50 AM 0.000 0.000 0.000 0.000 0.000 Not Reported Not Reported
03/19/2019 09:28 PM 60.98 50.18 39.92 74.84 44.06 45.0 Not Reported 3.80 SW 4.70 SW 3.13 E No 0.000 No Precipitation 03/10/2019 05:45 AM 03/10/2019 05:50 AM 0.000 0.000 0.000 0.000 0.000 Not Reported Not Reported
03/19/2019 09:43 PM 60.26 50.72 41.90 74.84 44.06 50.0 Not Reported 3.36 NW 2.46 N 8.05 W No 0.000 No Precipitation 03/10/2019 05:45 AM 03/10/2019 05:50 AM 0.000 0.000 0.000 0.000 0.000 Not Reported Not Reported
03/19/2019 09:58 PM 60.62 50.18 40.28 74.84 44.06 47.0 Not Reported 6.26 W 6.49 W 4.70 NW No 0.000 No Precipitation 03/10/2019 05:45 AM 03/10/2019 05:50 AM 0.000 0.000 0.000 0.000 0.000 Not Reported Not Reported
03/19/2019 10:13 PM 60.44 50.54 40.64 74.84 44.06 47.0 Not Reported 4.92 W 6.93 W 9.17 W No 0.000 No Precipitation 03/10/2019 05:45 AM 03/10/2019 05:50 AM 0.000 0.000 0.000 0.000 0.000 Not Reported Not Reported
03/19/2019 10:28 PM 62.06 50.54 39.02 74.84 44.06 42.0 Not Reported 6.04 W 6.04 W 7.38 NW No 0.000 No Precipitation 03/10/2019 05:45 AM 03/10/2019 05:50 AM 0.000 0.000 0.000 0.000 0.000 Not Reported Not Reported
03/19/2019 10:43 PM 60.62 50.54 40.82 74.84 44.06 48.0 Not Reported 4.47 W 5.59 W 6.49 W No 0.000 No Precipitation 03/10/2019 05:45 AM 03/10/2019 05:50 AM 0.000 0.000 0.000 0.000 0.000 Not Reported Not Reported
03/19/2019 10:58 PM 59.00 49.64 40.46 74.84 44.06 50.0 Not Reported 4.25 W 2.46 SW 9.17 NW No 0.000 No Precipitation 03/10/2019 05:45 AM 03/10/2019 05:50 AM 0.000 0.000 0.000 0.000 0.000 Not Reported Not Reported
03/19/2019 11:13 PM 59.00 49.82 41.18 74.84 44.06 51.0 Not Reported 2.01 SE 2.91 E 7.61 W No 0.000 No Precipitation 03/10/2019 05:45 AM 03/10/2019 05:50 AM 0.000 0.000 0.000 0.000 0.000 Not Reported Not Reported
03/19/2019 11:28 PM 58.64 49.82 41.36 74.84 44.06 52.0 Not Reported 4.70 SW 5.82 SW 3.80 E No 0.000 No Precipitation 03/10/2019 05:45 AM 03/10/2019 05:50 AM 0.000 0.000 0.000 0.000 0.000 Not Reported Not Reported
03/19/2019 11:43 PM 60.44 50.18 40.10 74.84 44.06 47.0 Not Reported 5.82 W 5.59 W 8.95 W No 0.000 No Precipitation 03/10/2019 05:45 AM 03/10/2019 05:50 AM 0.000 0.000 0.000 0.000 0.000 Not Reported Not Reported
03/19/2019 11:58 PM 59.54 49.82 40.46 74.84 44.06 49.0 Not Reported 10.29 NW 9.84 NW 9.62 W No 0.000 No Precipitation 03/10/2019 05:45 AM 03/10/2019 05:50 AM 0.000 0.000 0.000 0.000 0.000 Not Reported Not Reported